createdAt,value
2018-01-10T00:02:34.447Z,6.60
2018-01-10T00:17:34.484Z,6.53
2018-01-10T00:32:34.810Z,5.90
2018-01-10T00:47:37.622Z,5.70
2018-01-10T01:02:34.755Z,5.27
2018-01-10T01:17:34.754Z,4.40
2018-01-10T01:32:35.126Z,3.83
2018-01-10T01:47:34.283Z,4.07
2018-01-10T02:02:34.921Z,4.03
2018-01-10T02:17:41.920Z,3.40
2018-01-10T02:32:34.361Z,3.33
2018-01-10T02:47:36.300Z,3.70
2018-01-10T03:02:33.515Z,4.00
2018-01-10T03:17:34.425Z,2.60
2018-01-10T03:32:34.515Z,3.47
2018-01-10T03:47:34.749Z,3.90
2018-01-10T04:02:35.754Z,4.00
2018-01-10T04:17:36.623Z,6.90
2018-01-10T04:32:34.135Z,4.47
2018-01-10T04:47:34.088Z,3.10
2018-01-10T05:02:36.999Z,3.10
2018-01-10T05:17:35.868Z,3.10
2018-01-10T05:32:34.413Z,4.00
2018-01-10T05:47:37.109Z,3.70
2018-01-10T06:02:36.939Z,4.37
2018-01-10T06:17:34.909Z,4.43
2018-01-10T06:32:33.525Z,5.83
2018-01-10T06:47:35.536Z,5.27
2018-01-10T07:02:34.397Z,5.73
2018-01-10T07:17:36.434Z,6.67
2018-01-10T07:32:33.871Z,10.20
2018-01-10T07:47:33.696Z,6.53
2018-01-10T08:02:33.689Z,6.30
2018-01-10T08:17:35.651Z,6.07
2018-01-10T08:32:36.874Z,5.90
2018-01-10T08:47:36.637Z,5.93
2018-01-10T09:02:34.572Z,4.80
2018-01-10T09:17:33.784Z,6.27
2018-01-10T09:32:36.275Z,5.27
2018-01-10T09:47:34.254Z,5.60
2018-01-10T10:02:33.762Z,7.00
2018-01-10T10:17:33.613Z,5.80
2018-01-10T10:32:33.482Z,5.77
2018-01-10T10:47:35.597Z,5.17
2018-01-10T11:02:34.455Z,11.00
2018-01-10T11:17:36.387Z,10.80
2018-01-10T11:32:38.010Z,5.47
2018-01-10T11:47:34.370Z,3.80
2018-01-10T12:02:34.457Z,5.70
2018-01-10T12:17:37.095Z,6.27
2018-01-10T12:32:34.966Z,5.80
2018-01-10T12:47:34.759Z,5.13
2018-01-10T13:02:35.406Z,5.73
2018-01-10T13:17:35.745Z,4.97
2018-01-10T13:32:34.228Z,5.40
2018-01-10T13:47:34.819Z,4.53
2018-01-10T14:02:35.523Z,5.50
2018-01-10T14:17:33.981Z,5.40
2018-01-10T14:32:34.366Z,6.90
2018-01-10T14:47:38.078Z,7.30
2018-01-10T15:02:34.338Z,6.10
2018-01-10T15:17:34.290Z,5.50
2018-01-10T15:32:35.787Z,5.47
2018-01-10T15:47:33.567Z,6.87
2018-01-10T16:02:33.536Z,7.90
2018-01-10T16:17:38.411Z,9.30
2018-01-10T16:32:34.035Z,9.40
2018-01-10T16:47:40.564Z,8.60
2018-01-10T17:02:33.870Z,9.40
2018-01-10T18:17:44.994Z,41.70
2018-01-10T19:02:41.222Z,44.20
2018-01-10T19:17:37.275Z,44.30
2018-01-10T19:32:41.653Z,37.83
2018-01-10T19:47:40.778Z,29.13
2018-01-10T20:32:38.493Z,34.80
2018-01-10T21:02:37.233Z,35.70
2018-01-10T21:17:34.429Z,42.20
2018-01-10T21:32:35.888Z,47.77
2018-01-10T21:47:35.102Z,52.40
2018-01-10T22:02:38.085Z,49.73
2018-01-10T22:17:36.095Z,44.70
2018-01-10T22:32:36.474Z,43.30
2018-01-10T22:47:34.362Z,41.87
2018-01-10T23:02:37.008Z,38.07
2018-01-10T23:17:36.237Z,32.10
2018-01-10T23:32:36.279Z,30.27
2018-01-10T23:47:35.829Z,34.27
